Time;durP1;ratioP1;P1;durP2;ratioP2;P2;SDS_P1;SDS_P2;PMS_P1;PMS_P2;Temp;Humidity;BMP_temperature;BMP_pressure;BME280_temperature;BME280_humidity;BME280_pressure;Samples;Min_cycle;Max_cycle;Signal;HPM_P1;HPM_P2
2022/09/17 00:01:03;;;;;;;8.17;5.07;;;;;;;;;;4992648;28;20207;-78
2022/09/17 00:03:30;;;;;;;7.07;5.03;;;;;;;;;;4995480;28;20176;-78
2022/09/17 00:06:00;;;;;;;8.30;5.60;;;;;;;;;;4995331;28;20568;-78
2022/09/17 00:08:26;;;;;;;6.93;4.80;;;;;;;;;;4995393;28;20179;-78
2022/09/17 00:10:52;;;;;;;6.90;5.40;;;;;;;;;;4995193;28;20300;-78
2022/09/17 00:13:18;;;;;;;7.53;5.30;;;;;;;;;;4995281;28;20680;-77
2022/09/17 00:15:45;;;;;;;7.23;5.30;;;;;;;;;;4995126;28;20181;-78
2022/09/17 00:18:12;;;;;;;7.20;5.30;;;;;;;;;;4995169;28;20190;-78
2022/09/17 00:20:42;;;;;;;9.30;5.10;;;;;;;;;;4994858;28;20217;-77
2022/09/17 00:23:08;;;;;;;9.10;5.33;;;;;;;;;;4995199;28;20273;-78
2022/09/17 00:25:37;;;;;;;9.70;5.60;;;;;;;;;;4995069;28;20183;-77
2022/09/17 00:28:03;;;;;;;7.97;5.27;;;;;;;;;;4995125;28;20604;-77
2022/09/17 00:30:29;;;;;;;8.23;5.50;;;;;;;;;;4994695;28;20656;-78
2022/09/17 00:32:56;;;;;;;8.80;5.73;;;;;;;;;;4995156;28;20194;-78
2022/09/17 00:35:22;;;;;;;7.93;5.40;;;;;;;;;;4995214;28;20179;-78
2022/09/17 00:37:48;;;;;;;8.60;5.40;;;;;;;;;;4994781;28;20550;-78
2022/09/17 00:40:14;;;;;;;7.63;5.60;;;;;;;;;;4994487;28;20268;-78
2022/09/17 00:42:40;;;;;;;7.07;5.77;;;;;;;;;;4994867;28;20211;-77
2022/09/17 00:45:06;;;;;;;6.97;5.47;;;;;;;;;;4994714;28;20624;-78
2022/09/17 00:47:42;;;;;;;7.50;5.30;;;;;;;;;;4994674;28;20657;-78
2022/09/17 00:50:10;;;;;;;7.97;5.73;;;;;;;;;;4994681;28;20221;-78
2022/09/17 00:52:39;;;;;;;7.73;5.20;;;;;;;;;;4994549;28;20246;-77
2022/09/17 00:55:08;;;;;;;7.73;5.30;;;;;;;;;;4994696;28;20191;-78
2022/09/17 00:57:35;;;;;;;8.43;5.30;;;;;;;;;;4994519;28;20277;-78
2022/09/17 01:00:01;;;;;;;8.67;6.10;;;;;;;;;;4994474;28;20211;-78
2022/09/17 01:02:27;;;;;;;8.83;6.00;;;;;;;;;;4994523;28;20185;-78
2022/09/17 01:04:53;;;;;;;7.93;5.70;;;;;;;;;;4994642;28;20188;-78
2022/09/17 01:07:34;;;;;;;7.13;5.80;;;;;;;;;;4995673;28;20241;-78
2022/09/17 01:10:19;;;;;;;9.30;5.87;;;;;;;;;;4995582;28;20186;-78
2022/09/17 01:12:57;;;;;;;7.50;5.20;;;;;;;;;;4995739;28;20516;-78
2022/09/17 01:15:35;;;;;;;7.43;5.13;;;;;;;;;;4995825;28;20182;-78
2022/09/17 01:18:08;;;;;;;7.00;5.13;;;;;;;;;;4994583;28;20189;-78
2022/09/17 01:20:52;;;;;;;7.13;4.70;;;;;;;;;;4994061;28;20215;-78
2022/09/17 01:23:33;;;;;;;5.07;4.07;;;;;;;;;;4994292;28;20202;-78
2022/09/17 01:26:05;;;;;;;6.47;4.50;;;;;;;;;;4994651;28;20250;-78
2022/09/17 01:28:35;;;;;;;8.13;4.20;;;;;;;;;;4994099;28;20179;-78
2022/09/17 01:31:01;;;;;;;6.23;4.10;;;;;;;;;;4993786;28;20265;-78
2022/09/17 01:33:39;;;;;;;6.27;3.60;;;;;;;;;;4993858;28;20272;-78
2022/09/17 01:36:08;;;;;;;7.93;4.30;;;;;;;;;;4994138;28;20241;-78
2022/09/17 01:38:44;;;;;;;4.97;4.23;;;;;;;;;;4994080;28;20210;-78
2022/09/17 01:41:14;;;;;;;7.73;4.10;;;;;;;;;;4993522;28;20348;-78
2022/09/17 01:43:52;;;;;;;4.73;4.27;;;;;;;;;;4993854;28;20176;-78
2022/09/17 01:46:27;;;;;;;5.27;4.50;;;;;;;;;;4993796;28;20206;-78
2022/09/17 01:48:56;;;;;;;5.07;3.70;;;;;;;;;;5010037;28;20655;-78
2022/09/17 01:51:27;;;;;;;5.73;3.90;;;;;;;;;;4993690;28;20183;-78
2022/09/17 01:53:56;;;;;;;7.27;4.60;;;;;;;;;;4993597;28;20221;-77
2022/09/17 01:56:24;;;;;;;7.47;4.50;;;;;;;;;;4993491;28;20238;-78
2022/09/17 01:58:57;;;;;;;5.47;4.43;;;;;;;;;;4993525;28;20186;-78
2022/09/17 02:01:24;;;;;;;8.63;4.80;;;;;;;;;;4993682;28;20236;-78
2022/09/17 02:03:56;;;;;;;6.17;4.97;;;;;;;;;;4993552;28;20183;-78
2022/09/17 02:06:26;;;;;;;6.70;4.80;;;;;;;;;;4993173;28;20222;-78
2022/09/17 02:09:15;;;;;;;7.23;4.57;;;;;;;;;;4993540;28;20633;-78
2022/09/17 02:11:42;;;;;;;6.43;4.43;;;;;;;;;;4992628;28;20326;-78
2022/09/17 02:14:09;;;;;;;6.93;4.40;;;;;;;;;;4993272;28;20274;-78
2022/09/17 02:16:36;;;;;;;6.87;4.83;;;;;;;;;;4993263;28;20760;-78
2022/09/17 02:19:03;;;;;;;5.93;4.10;;;;;;;;;;4992970;28;20190;-78
2022/09/17 02:21:45;;;;;;;5.07;4.07;;;;;;;;;;4994231;28;20616;-78
2022/09/17 02:24:16;;;;;;;5.30;3.67;;;;;;;;;;4992751;28;20179;-78
2022/09/17 02:26:45;;;;;;;4.97;3.33;;;;;;;;;;4993263;28;20208;-78
2022/09/17 02:29:19;;;;;;;4.07;3.43;;;;;;;;;;4994164;28;20171;-78
2022/09/17 02:31:45;;;;;;;6.73;3.60;;;;;;;;;;4994171;28;20172;-78
2022/09/17 02:34:11;;;;;;;5.60;3.43;;;;;;;;;;4992727;28;20290;-78
2022/09/17 02:36:37;;;;;;;4.37;2.70;;;;;;;;;;4992828;28;20580;-78
2022/09/17 02:39:03;;;;;;;5.47;2.90;;;;;;;;;;4992717;28;20212;-78
2022/09/17 02:41:36;;;;;;;3.57;3.23;;;;;;;;;;4992769;28;20660;-78
2022/09/17 02:44:02;;;;;;;6.03;3.50;;;;;;;;;;4992778;28;20179;-78
2022/09/17 02:46:43;;;;;;;4.80;3.60;;;;;;;;;;4993971;28;20252;-78
2022/09/17 02:49:28;;;;;;;3.90;3.27;;;;;;;;;;4992697;28;20184;-78
2022/09/17 02:52:07;;;;;;;3.93;3.53;;;;;;;;;;4992827;28;20186;-78
2022/09/17 02:54:39;;;;;;;6.10;3.60;;;;;;;;;;4992412;28;20178;-77
2022/09/17 02:57:05;;;;;;;4.90;3.30;;;;;;;;;;4992620;28;20210;-77
2022/09/17 02:59:51;;;;;;;4.07;3.00;;;;;;;;;;4992546;28;20185;-78
2022/09/17 03:02:19;;;;;;;3.20;2.90;;;;;;;;;;4993892;28;20181;-78
2022/09/17 03:04:47;;;;;;;3.10;2.80;;;;;;;;;;4992604;28;20598;-78
2022/09/17 03:07:13;;;;;;;3.23;2.70;;;;;;;;;;4992374;28;20219;-78
2022/09/17 03:09:42;;;;;;;4.47;2.80;;;;;;;;;;4992367;28;20546;-78
2022/09/17 03:12:08;;;;;;;3.77;2.30;;;;;;;;;;4992269;28;20652;-78
2022/09/17 03:14:34;;;;;;;2.50;2.17;;;;;;;;;;5008821;28;20267;-78
2022/09/17 03:17:00;;;;;;;2.70;1.90;;;;;;;;;;4992360;28;20292;-78
2022/09/17 03:19:26;;;;;;;2.07;1.80;;;;;;;;;;4991996;28;20213;-78
2022/09/17 03:21:52;;;;;;;2.03;1.73;;;;;;;;;;4992626;28;20651;-78
2022/09/17 03:24:18;;;;;;;1.67;1.57;;;;;;;;;;4992458;28;20182;-78
2022/09/17 03:26:46;;;;;;;2.20;1.90;;;;;;;;;;4992532;28;20220;-78
2022/09/17 03:29:12;;;;;;;2.67;1.90;;;;;;;;;;4992342;28;20231;-78
2022/09/17 03:31:38;;;;;;;2.37;1.90;;;;;;;;;;4993545;28;20239;-78
2022/09/17 03:34:04;;;;;;;1.90;1.80;;;;;;;;;;4992339;28;20597;-78
2022/09/17 03:36:30;;;;;;;3.40;2.30;;;;;;;;;;4992284;28;20237;-78
2022/09/17 03:38:56;;;;;;;2.67;2.37;;;;;;;;;;4991925;28;20191;-78
2022/09/17 03:41:23;;;;;;;2.30;2.10;;;;;;;;;;4992157;28;20218;-78
2022/09/17 03:43:49;;;;;;;2.47;2.17;;;;;;;;;;4992137;28;20237;-78
2022/09/17 03:46:15;;;;;;;3.17;2.70;;;;;;;;;;4991995;28;20370;-78
2022/09/17 03:48:41;;;;;;;2.83;2.33;;;;;;;;;;4991828;28;20186;-78
2022/09/17 03:51:07;;;;;;;3.60;2.53;;;;;;;;;;4992110;28;20187;-78
2022/09/17 03:53:33;;;;;;;3.27;2.73;;;;;;;;;;4991971;28;20186;-78
2022/09/17 03:56:00;;;;;;;3.27;2.60;;;;;;;;;;4992210;28;20251;-78
2022/09/17 03:58:26;;;;;;;3.43;2.57;;;;;;;;;;4991730;28;20226;-78
2022/09/17 04:00:53;;;;;;;4.77;2.80;;;;;;;;;;4992604;28;20204;-78
2022/09/17 04:03:20;;;;;;;3.37;2.70;;;;;;;;;;4991835;28;20283;-78
2022/09/17 04:05:46;;;;;;;5.87;3.03;;;;;;;;;;4991708;28;20190;-78
2022/09/17 04:08:12;;;;;;;4.30;3.07;;;;;;;;;;4991743;28;20190;-78
2022/09/17 04:10:38;;;;;;;4.93;3.27;;;;;;;;;;4991506;28;20667;-78
2022/09/17 04:13:04;;;;;;;4.13;3.50;;;;;;;;;;4991998;28;20187;-78
2022/09/17 04:15:30;;;;;;;4.37;3.40;;;;;;;;;;4991957;28;20251;-78
2022/09/17 04:17:56;;;;;;;4.80;3.03;;;;;;;;;;4992938;28;20207;-78
2022/09/17 04:20:23;;;;;;;4.43;3.10;;;;;;;;;;4991606;28;20214;-78
2022/09/17 04:22:49;;;;;;;4.70;3.10;;;;;;;;;;4992040;28;20187;-78
2022/09/17 04:25:15;;;;;;;6.57;3.43;;;;;;;;;;4991623;28;20186;-78
2022/09/17 04:27:41;;;;;;;6.27;3.33;;;;;;;;;;4992701;28;20194;-78
2022/09/17 04:30:07;;;;;;;4.47;3.13;;;;;;;;;;4991465;28;20190;-78
2022/09/17 04:32:33;;;;;;;5.27;3.67;;;;;;;;;;5007816;28;20176;-78
2022/09/17 04:34:59;;;;;;;4.80;3.40;;;;;;;;;;4991791;28;20187;-78
2022/09/17 04:37:25;;;;;;;5.33;3.60;;;;;;;;;;4991596;28;20691;-78
2022/09/17 04:39:51;;;;;;;6.20;3.53;;;;;;;;;;4989965;28;20193;-78
2022/09/17 04:42:17;;;;;;;4.83;2.87;;;;;;;;;;4990626;28;20526;-78
2022/09/17 04:44:43;;;;;;;4.17;3.20;;;;;;;;;;4989857;28;20181;-79
2022/09/17 04:47:09;;;;;;;5.63;3.33;;;;;;;;;;4991665;28;20202;-78
2022/09/17 04:49:35;;;;;;;4.67;3.67;;;;;;;;;;4994124;28;20253;-78
2022/09/17 04:52:01;;;;;;;4.37;2.97;;;;;;;;;;4994291;28;20207;-78
2022/09/17 04:54:27;;;;;;;4.93;3.00;;;;;;;;;;4994282;28;20671;-78
2022/09/17 04:56:53;;;;;;;4.43;3.50;;;;;;;;;;4994585;28;20209;-77
2022/09/17 04:59:19;;;;;;;7.07;3.30;;;;;;;;;;4994424;28;20190;-78
2022/09/17 05:01:45;;;;;;;5.00;3.33;;;;;;;;;;4994705;28;20248;-78
2022/09/17 05:04:11;;;;;;;6.83;3.50;;;;;;;;;;5010719;28;20174;-79
2022/09/17 05:06:37;;;;;;;4.63;3.23;;;;;;;;;;5030630;22;20243;-79
2022/09/17 05:09:03;;;;;;;4.40;3.43;;;;;;;;;;5018469;28;20199;-79
2022/09/17 05:11:29;;;;;;;6.83;3.60;;;;;;;;;;5035248;28;20177;-79
2022/09/17 05:13:55;;;;;;;4.83;3.33;;;;;;;;;;5034826;28;20207;-80
2022/09/17 05:16:21;;;;;;;5.37;3.63;;;;;;;;;;5018670;28;20257;-79
2022/09/17 05:18:48;;;;;;;6.23;3.53;;;;;;;;;;5035050;28;20644;-79
2022/09/17 05:21:14;;;;;;;6.07;3.47;;;;;;;;;;5018470;28;20286;-79
2022/09/17 05:23:40;;;;;;;4.87;3.10;;;;;;;;;;5018438;28;20185;-79
2022/09/17 05:26:06;;;;;;;6.77;3.37;;;;;;;;;;5018479;28;20181;-79
2022/09/17 05:28:33;;;;;;;6.23;3.30;;;;;;;;;;5018136;28;20176;-79
2022/09/17 05:30:59;;;;;;;5.93;3.47;;;;;;;;;;5018013;28;20193;-79
2022/09/17 05:33:25;;;;;;;5.83;3.37;;;;;;;;;;5018155;28;20193;-79
2022/09/17 05:35:51;;;;;;;5.77;3.20;;;;;;;;;;5018088;28;20184;-79
2022/09/17 05:38:17;;;;;;;6.37;3.03;;;;;;;;;;5017805;28;20226;-79
2022/09/17 05:40:44;;;;;;;5.60;3.53;;;;;;;;;;5035539;28;20195;-79
2022/09/17 05:43:10;;;;;;;5.83;3.73;;;;;;;;;;5018113;28;20181;-79
2022/09/17 05:45:36;;;;;;;6.43;3.40;;;;;;;;;;5017710;28;20556;-79
2022/09/17 05:48:03;;;;;;;6.03;3.23;;;;;;;;;;5033990;28;20200;-80
2022/09/17 05:50:30;;;;;;;6.13;3.30;;;;;;;;;;5034030;28;20181;-79
2022/09/17 05:52:56;;;;;;;6.03;4.00;;;;;;;;;;5033812;28;20205;-79
2022/09/17 05:55:22;;;;;;;9.30;3.40;;;;;;;;;;5017725;28;20651;-79
2022/09/17 05:57:51;;;;;;;7.03;3.53;;;;;;;;;;5034092;28;20205;-79
2022/09/17 06:00:18;;;;;;;7.77;3.70;;;;;;;;;;5017717;28;20207;-79
2022/09/17 06:02:44;;;;;;;8.77;3.93;;;;;;;;;;5034855;28;20183;-79
2022/09/17 06:05:10;;;;;;;7.30;3.73;;;;;;;;;;5018620;28;20199;-79
2022/09/17 06:07:36;;;;;;;7.60;3.77;;;;;;;;;;5018319;28;20220;-79
2022/09/17 06:10:03;;;;;;;6.27;3.90;;;;;;;;;;5017081;28;20177;-81
2022/09/17 06:12:29;;;;;;;5.57;3.63;;;;;;;;;;5033611;28;20182;-79
2022/09/17 06:14:55;;;;;;;5.13;3.50;;;;;;;;;;5017108;28;20255;-79
2022/09/17 06:17:21;;;;;;;7.73;3.40;;;;;;;;;;5033524;28;20197;-79
2022/09/17 06:19:47;;;;;;;8.70;3.90;;;;;;;;;;5033062;28;20205;-79
2022/09/17 06:22:13;;;;;;;8.90;3.90;;;;;;;;;;5016930;28;20195;-79
2022/09/17 06:24:39;;;;;;;6.33;3.50;;;;;;;;;;5017133;28;20262;-79
2022/09/17 06:27:05;;;;;;;8.20;3.63;;;;;;;;;;5016979;28;20197;-79
2022/09/17 06:29:31;;;;;;;9.20;4.20;;;;;;;;;;5016923;28;20597;-79
2022/09/17 06:31:57;;;;;;;9.83;4.73;;;;;;;;;;5016612;28;20190;-79
2022/09/17 06:34:23;;;;;;;6.43;3.57;;;;;;;;;;5033107;28;20237;-79
2022/09/17 06:36:49;;;;;;;5.80;3.80;;;;;;;;;;5016623;28;20553;-79
2022/09/17 06:39:15;;;;;;;8.20;3.70;;;;;;;;;;5016090;28;20193;-79
2022/09/17 06:41:42;;;;;;;5.90;3.57;;;;;;;;;;5016662;28;20213;-79
2022/09/17 06:44:08;;;;;;;11.33;4.00;;;;;;;;;;5033938;28;20175;-79
2022/09/17 06:46:34;;;;;;;8.93;4.00;;;;;;;;;;5016362;28;20220;-80
2022/09/17 06:49:00;;;;;;;8.67;3.70;;;;;;;;;;5016245;28;20188;-78
2022/09/17 06:51:26;;;;;;;7.53;3.63;;;;;;;;;;5033254;28;20185;-79
2022/09/17 06:53:52;;;;;;;9.87;3.63;;;;;;;;;;5016547;28;20207;-79
2022/09/17 06:56:18;;;;;;;7.57;3.50;;;;;;;;;;5016582;28;20296;-79
2022/09/17 06:58:44;;;;;;;6.60;3.40;;;;;;;;;;5016140;28;20286;-79
2022/09/17 07:01:11;;;;;;;7.53;3.17;;;;;;;;;;5031849;28;20208;-79
2022/09/17 07:03:37;;;;;;;11.73;3.97;;;;;;;;;;5032502;28;20223;-79
2022/09/17 07:06:03;;;;;;;6.97;3.60;;;;;;;;;;5032313;28;20180;-79
2022/09/17 07:08:33;;;;;;;6.90;3.33;;;;;;;;;;5032344;28;20191;-79
2022/09/17 07:10:59;;;;;;;8.80;3.87;;;;;;;;;;5031228;28;20180;-80
2022/09/17 07:13:26;;;;;;;7.13;3.40;;;;;;;;;;5024088;28;20175;-79
2022/09/17 07:15:53;;;;;;;7.43;3.60;;;;;;;;;;5032325;28;20181;-80
2022/09/17 07:18:19;;;;;;;7.37;3.20;;;;;;;;;;5033481;28;20192;-79
2022/09/17 07:20:52;;;;;;;10.77;3.50;;;;;;;;;;5032296;28;20213;-79
2022/09/17 07:23:18;;;;;;;12.43;3.97;;;;;;;;;;5032934;28;20628;-80
2022/09/17 07:25:44;;;;;;;9.13;3.53;;;;;;;;;;5015309;28;20225;-80
2022/09/17 07:28:10;;;;;;;9.63;3.87;;;;;;;;;;5014467;28;20300;-78
2022/09/17 07:30:36;;;;;;;9.73;3.43;;;;;;;;;;5014224;28;20239;-78
2022/09/17 07:33:02;;;;;;;8.00;3.37;;;;;;;;;;5014340;28;20181;-78
2022/09/17 07:35:28;;;;;;;10.87;3.80;;;;;;;;;;5014473;28;20182;-78
2022/09/17 07:37:54;;;;;;;10.27;3.23;;;;;;;;;;5015165;28;20616;-80
2022/09/17 07:40:20;;;;;;;7.37;3.60;;;;;;;;;;5015183;28;20240;-80
2022/09/17 07:42:46;;;;;;;6.47;3.20;;;;;;;;;;5015596;28;20186;-79
2022/09/17 07:45:12;;;;;;;8.33;3.67;;;;;;;;;;5015116;28;20212;-79
2022/09/17 07:47:39;;;;;;;10.07;3.50;;;;;;;;;;5032044;28;20190;-79
2022/09/17 07:50:05;;;;;;;9.77;3.73;;;;;;;;;;5014997;28;20610;-79
2022/09/17 07:52:31;;;;;;;7.67;3.63;;;;;;;;;;5015120;28;20708;-79
2022/09/17 07:54:57;;;;;;;7.83;3.43;;;;;;;;;;5015516;28;20283;-80
2022/09/17 07:57:23;;;;;;;7.17;3.30;;;;;;;;;;5015221;28;20197;-80
2022/09/17 07:59:49;;;;;;;10.70;3.27;;;;;;;;;;5031233;28;20201;-80
2022/09/17 08:02:15;;;;;;;8.07;3.50;;;;;;;;;;5031289;28;20201;-79
2022/09/17 08:04:44;;;;;;;7.33;3.10;;;;;;;;;;5015350;28;20182;-79
2022/09/17 08:07:12;;;;;;;8.67;3.50;;;;;;;;;;5031598;28;20774;-79
2022/09/17 08:09:38;;;;;;;7.87;3.50;;;;;;;;;;5030987;28;20175;-79
2022/09/17 08:12:04;;;;;;;7.47;3.30;;;;;;;;;;5014798;28;20633;-79
2022/09/17 08:14:30;;;;;;;6.80;3.27;;;;;;;;;;5014985;28;20277;-79
2022/09/17 08:16:56;;;;;;;8.07;2.80;;;;;;;;;;5014966;28;20234;-79
2022/09/17 08:19:23;;;;;;;7.57;2.90;;;;;;;;;;5013823;28;20179;-82
2022/09/17 08:21:49;;;;;;;5.67;2.60;;;;;;;;;;5015928;28;20202;-79
2022/09/17 08:24:15;;;;;;;5.00;2.57;;;;;;;;;;5012863;28;20190;-79
2022/09/17 08:26:41;;;;;;;9.97;3.17;;;;;;;;;;5009850;28;20202;-79
2022/09/17 08:29:07;;;;;;;7.13;2.90;;;;;;;;;;5012887;28;20175;-79
2022/09/17 08:31:33;;;;;;;9.03;2.80;;;;;;;;;;5010521;28;20194;-79
2022/09/17 08:33:59;;;;;;;6.20;2.47;;;;;;;;;;5029280;28;20187;-85
2022/09/17 08:36:26;;;;;;;7.00;2.50;;;;;;;;;;5018947;28;20203;-79
2022/09/17 08:38:52;;;;;;;8.20;2.87;;;;;;;;;;5034607;28;20175;-81
2022/09/17 08:41:18;;;;;;;7.27;2.43;;;;;;;;;;5034795;28;20230;-79
2022/09/17 08:43:48;;;;;;;9.93;2.80;;;;;;;;;;5034965;28;20261;-79
2022/09/17 08:46:14;;;;;;;6.97;2.57;;;;;;;;;;5035075;28;20209;-79
2022/09/17 08:48:59;;;;;;;8.23;2.47;;;;;;;;;;5035297;28;20265;-79
2022/09/17 08:51:47;;;;;;;5.63;2.47;;;;;;;;;;5035013;28;20186;-79
2022/09/17 08:54:16;;;;;;;7.83;2.67;;;;;;;;;;5035342;28;20193;-79
2022/09/17 08:56:44;;;;;;;7.20;2.53;;;;;;;;;;5035724;28;20194;-80
2022/09/17 08:59:37;;;;;;;10.87;2.57;;;;;;;;;;5035565;28;20705;-80
2022/09/17 09:02:16;;;;;;;4.63;2.57;;;;;;;;;;5033423;28;20260;-79
2022/09/17 09:04:45;;;;;;;5.93;2.57;;;;;;;;;;5034200;28;20513;-80
2022/09/17 09:07:16;;;;;;;9.10;3.07;;;;;;;;;;5035317;28;20216;-80
2022/09/17 09:09:52;;;;;;;4.87;2.27;;;;;;;;;;5034146;28;20174;-80
2022/09/17 09:12:23;;;;;;;5.10;2.47;;;;;;;;;;5034224;28;20268;-79
2022/09/17 09:15:22;;;;;;;6.53;2.70;;;;;;;;;;5034330;28;20256;-81
2022/09/17 09:17:49;;;;;;;7.40;2.70;;;;;;;;;;4991363;28;20301;-80
2022/09/17 09:20:17;;;;;;;8.47;2.67;;;;;;;;;;5033533;28;20234;-82
2022/09/17 09:22:46;;;;;;;10.20;2.70;;;;;;;;;;5034445;28;20226;-81
2022/09/17 09:25:17;;;;;;;5.73;2.87;;;;;;;;;;5034640;28;20178;-81
2022/09/17 09:27:48;;;;;;;8.33;2.60;;;;;;;;;;5034371;28;20198;-81
2022/09/17 09:30:17;;;;;;;7.53;2.43;;;;;;;;;;5033970;28;20571;-81
2022/09/17 09:32:43;;;;;;;6.73;2.10;;;;;;;;;;5034394;28;20197;-82
2022/09/17 09:35:15;;;;;;;5.57;2.10;;;;;;;;;;5034194;28;20182;-81
2022/09/17 09:37:43;;;;;;;8.17;2.20;;;;;;;;;;5034294;28;20225;-85
2022/09/17 09:40:21;;;;;;;5.63;2.17;;;;;;;;;;5017868;28;20182;-80
2022/09/17 09:42:48;;;;;;;4.93;2.20;;;;;;;;;;5035402;28;20237;-80
2022/09/17 09:45:16;;;;;;;5.07;2.00;;;;;;;;;;5033951;28;20178;-85
2022/09/17 09:47:54;;;;;;;6.47;2.40;;;;;;;;;;5017405;28;20657;-83
2022/09/17 09:50:33;;;;;;;5.07;2.23;;;;;;;;;;5034431;28;20170;-83
2022/09/17 09:53:05;;;;;;;4.90;1.70;;;;;;;;;;5033179;28;20190;-83
2022/09/17 09:55:39;;;;;;;4.93;1.80;;;;;;;;;;5013532;28;20179;-83
2022/09/17 09:58:10;;;;;;;3.70;1.57;;;;;;;;;;5013367;28;20207;-83
2022/09/17 10:00:41;;;;;;;5.30;1.77;;;;;;;;;;5014682;28;20183;-82
2022/09/17 10:03:13;;;;;;;3.33;1.70;;;;;;;;;;5013464;28;20253;-81
2022/09/17 10:05:40;;;;;;;5.20;2.10;;;;;;;;;;5013714;28;20175;-81
2022/09/17 10:08:13;;;;;;;4.80;2.00;;;;;;;;;;5013520;28;20306;-80
2022/09/17 10:10:57;;;;;;;7.57;2.60;;;;;;;;;;5013201;28;20183;-80
2022/09/17 10:13:23;;;;;;;7.00;1.83;;;;;;;;;;5013297;28;20275;-78
2022/09/17 10:15:50;;;;;;;2.73;1.53;;;;;;;;;;5032558;28;20174;-80
2022/09/17 10:18:16;;;;;;;5.43;1.93;;;;;;;;;;5034404;28;20567;-80
2022/09/17 10:20:49;;;;;;;5.67;1.90;;;;;;;;;;5033287;28;20277;-81
2022/09/17 10:23:15;;;;;;;5.13;2.13;;;;;;;;;;5016618;28;20178;-82
2022/09/17 10:25:44;;;;;;;6.07;1.70;;;;;;;;;;5016604;28;20175;-82
2022/09/17 10:28:32;;;;;;;13.10;4.00;;;;;;;;;;5033182;28;20256;-81
2022/09/17 10:31:03;;;;;;;8.77;2.03;;;;;;;;;;5032939;28;20185;-81
2022/09/17 10:33:30;;;;;;;2.80;1.60;;;;;;;;;;5032768;28;20182;-81
2022/09/17 10:35:57;;;;;;;1.87;1.30;;;;;;;;;;5033928;28;20550;-82
2022/09/17 10:38:27;;;;;;;4.33;2.17;;;;;;;;;;5032859;28;20178;-81
2022/09/17 10:40:53;;;;;;;3.50;1.67;;;;;;;;;;5032723;28;20198;-81
2022/09/17 10:43:21;;;;;;;4.60;1.60;;;;;;;;;;5016472;28;20181;-82
2022/09/17 10:45:55;;;;;;;4.00;1.70;;;;;;;;;;5032199;28;20174;-81
2022/09/17 10:48:22;;;;;;;4.23;1.37;;;;;;;;;;5032816;28;20178;-81
2022/09/17 10:50:49;;;;;;;3.30;1.43;;;;;;;;;;5032313;28;20185;-82
2022/09/17 10:53:16;;;;;;;3.07;1.53;;;;;;;;;;5016201;28;20225;-82
2022/09/17 10:55:49;;;;;;;3.93;1.50;;;;;;;;;;5032398;28;20261;-81
2022/09/17 10:58:31;;;;;;;5.20;1.93;;;;;;;;;;5032306;28;20202;-81
2022/09/17 11:01:03;;;;;;;4.13;1.60;;;;;;;;;;5032419;28;20206;-82
2022/09/17 11:03:50;;;;;;;5.10;1.60;;;;;;;;;;5032900;28;20185;-81
2022/09/17 11:06:20;;;;;;;3.77;1.43;;;;;;;;;;5003084;28;20599;-80
2022/09/17 11:09:08;;;;;;;3.23;1.43;;;;;;;;;;5032873;28;20224;-82
2022/09/17 11:11:44;;;;;;;4.47;1.90;;;;;;;;;;5032697;28;20170;-81
2022/09/17 11:14:32;;;;;;;3.63;1.30;;;;;;;;;;5032417;28;20177;-80
2022/09/17 11:17:04;;;;;;;4.20;1.50;;;;;;;;;;5032411;28;20206;-81
2022/09/17 11:19:46;;;;;;;3.90;1.47;;;;;;;;;;5031923;28;20185;-80
2022/09/17 11:22:30;;;;;;;4.23;1.27;;;;;;;;;;5032300;28;20198;-82
2022/09/17 11:25:15;;;;;;;4.40;1.60;;;;;;;;;;5031725;28;20725;-81
2022/09/17 11:27:47;;;;;;;3.20;1.20;;;;;;;;;;5033854;28;20213;-79
2022/09/17 11:30:20;;;;;;;4.50;1.70;;;;;;;;;;5032145;28;20178;-80
2022/09/17 11:33:01;;;;;;;2.60;1.17;;;;;;;;;;5032805;28;20285;-79
2022/09/17 11:35:29;;;;;;;5.93;1.50;;;;;;;;;;5033354;28;20633;-79
2022/09/17 11:37:58;;;;;;;3.93;1.60;;;;;;;;;;5017082;28;20202;-79
2022/09/17 11:40:44;;;;;;;4.00;1.40;;;;;;;;;;5032587;28;20202;-80
2022/09/17 11:43:20;;;;;;;4.33;1.67;;;;;;;;;;5033311;28;20174;-81
2022/09/17 11:46:06;;;;;;;4.00;1.20;;;;;;;;;;5032213;28;20178;-81
2022/09/17 11:48:41;;;;;;;3.23;1.40;;;;;;;;;;5031545;28;20190;-82
2022/09/17 11:51:17;;;;;;;2.87;1.20;;;;;;;;;;5032157;28;20184;-80
2022/09/17 11:53:49;;;;;;;3.87;1.30;;;;;;;;;;5031745;28;20182;-81
2022/09/17 11:56:26;;;;;;;2.17;1.30;;;;;;;;;;5034087;28;20198;-78
2022/09/17 11:58:55;;;;;;;2.20;1.10;;;;;;;;;;5020306;28;20204;-80
2022/09/17 12:01:35;;;;;;;3.37;1.30;;;;;;;;;;5036511;28;20204;-79
2022/09/17 12:04:20;;;;;;;2.63;1.13;;;;;;;;;;5036878;28;20166;-79
2022/09/17 12:06:50;;;;;;;3.30;1.47;;;;;;;;;;5035955;28;20220;-79
2022/09/17 12:09:18;;;;;;;4.10;1.33;;;;;;;;;;5036057;28;20182;-80
2022/09/17 12:11:52;;;;;;;3.07;1.27;;;;;;;;;;5019860;28;20187;-79
2022/09/17 12:14:21;;;;;;;5.07;1.30;;;;;;;;;;5036036;28;20182;-81
2022/09/17 12:16:50;;;;;;;4.43;1.60;;;;;;;;;;5035586;28;20237;-80
2022/09/17 12:19:34;;;;;;;3.63;1.23;;;;;;;;;;5019780;28;20195;-79
2022/09/17 12:22:18;;;;;;;4.17;1.40;;;;;;;;;;5036793;28;20677;-79
2022/09/17 12:24:44;;;;;;;2.47;1.33;;;;;;;;;;5036149;28;20720;-80
2022/09/17 12:27:17;;;;;;;2.80;1.43;;;;;;;;;;5019720;28;20571;-80
2022/09/17 12:29:46;;;;;;;4.67;1.50;;;;;;;;;;5036949;28;20185;-78
2022/09/17 12:32:18;;;;;;;1.77;1.20;;;;;;;;;;5036590;28;20212;-79
2022/09/17 12:34:44;;;;;;;2.70;1.20;;;;;;;;;;5036750;28;20227;-79
2022/09/17 12:37:10;;;;;;;3.83;1.40;;;;;;;;;;5036542;28;20198;-79
2022/09/17 12:39:42;;;;;;;2.73;1.00;;;;;;;;;;5035650;28;20179;-79
2022/09/17 12:42:14;;;;;;;2.20;1.00;;;;;;;;;;5035824;28;20208;-79
2022/09/17 12:44:40;;;;;;;3.30;1.20;;;;;;;;;;5035373;28;20170;-78
2022/09/17 12:47:18;;;;;;;2.93;1.20;;;;;;;;;;5035838;28;20205;-79
2022/09/17 12:49:51;;;;;;;2.70;1.10;;;;;;;;;;5034282;28;20304;-79
2022/09/17 12:52:28;;;;;;;2.53;1.10;;;;;;;;;;5034822;28;20174;-78
2022/09/17 12:55:10;;;;;;;2.27;1.00;;;;;;;;;;5034527;28;20170;-78
2022/09/17 12:57:42;;;;;;;3.03;1.10;;;;;;;;;;5035447;28;20198;-78
2022/09/17 13:00:12;;;;;;;2.30;1.00;;;;;;;;;;5034013;28;20206;-78
2022/09/17 13:02:57;;;;;;;2.93;1.20;;;;;;;;;;5033712;28;20667;-78
2022/09/17 13:05:23;;;;;;;4.20;1.20;;;;;;;;;;5035004;28;20167;-76
2022/09/17 13:08:08;;;;;;;3.33;1.10;;;;;;;;;;5034430;28;20228;-79
2022/09/17 13:10:40;;;;;;;1.23;0.80;;;;;;;;;;5034926;28;20216;-79
2022/09/17 13:13:12;;;;;;;1.33;0.90;;;;;;;;;;5034813;28;20179;-79
2022/09/17 13:15:41;;;;;;;1.47;1.17;;;;;;;;;;5034563;28;20182;-78
2022/09/17 13:18:12;;;;;;;3.07;1.20;;;;;;;;;;5033891;28;20301;-77
2022/09/17 13:20:54;;;;;;;1.40;1.00;;;;;;;;;;5033863;28;20194;-77
2022/09/17 13:23:36;;;;;;;2.57;0.90;;;;;;;;;;5035022;28;20163;-77
2022/09/17 13:26:04;;;;;;;1.93;1.10;;;;;;;;;;5033770;28;20194;-77
2022/09/17 13:29:00;;;;;;;1.90;1.17;;;;;;;;;;5034385;28;20175;-77
2022/09/17 13:31:38;;;;;;;2.90;1.40;;;;;;;;;;5021363;28;20186;-78
2022/09/17 13:34:16;;;;;;;1.30;1.10;;;;;;;;;;5034003;28;20174;-78
2022/09/17 13:36:42;;;;;;;2.17;1.10;;;;;;;;;;5033907;28;20208;-78
2022/09/17 13:39:10;;;;;;;2.63;1.20;;;;;;;;;;5033342;28;20211;-78
2022/09/17 13:41:38;;;;;;;2.87;0.93;;;;;;;;;;5033721;28;20293;-78
2022/09/17 13:44:05;;;;;;;2.07;1.03;;;;;;;;;;5033854;28;20181;-78
2022/09/17 13:46:32;;;;;;;2.77;1.10;;;;;;;;;;5033421;28;20195;-78
2022/09/17 13:49:02;;;;;;;1.77;0.90;;;;;;;;;;5033687;28;20177;-77
2022/09/17 13:51:42;;;;;;;1.10;0.80;;;;;;;;;;5033369;28;20170;-77
2022/09/17 13:54:09;;;;;;;1.80;1.00;;;;;;;;;;5033492;28;20174;-77
2022/09/17 13:56:41;;;;;;;1.33;0.90;;;;;;;;;;5033133;28;20209;-77
2022/09/17 13:59:24;;;;;;;2.50;0.90;;;;;;;;;;5034339;28;20178;-75
2022/09/17 14:01:50;;;;;;;1.23;0.90;;;;;;;;;;5033034;28;20672;-77
2022/09/17 14:04:45;;;;;;;1.23;0.83;;;;;;;;;;5033520;28;20229;-82
2022/09/17 14:07:22;;;;;;;1.93;0.83;;;;;;;;;;5033176;28;20557;-78
2022/09/17 14:09:52;;;;;;;1.83;0.87;;;;;;;;;;5032994;28;20281;-78
2022/09/17 14:12:37;;;;;;;0.93;0.87;;;;;;;;;;5016728;28;20187;-77
2022/09/17 14:15:03;;;;;;;1.17;0.80;;;;;;;;;;5033243;28;20182;-76
2022/09/17 14:17:57;;;;;;;1.37;0.80;;;;;;;;;;5033992;28;20186;-77
2022/09/17 14:20:24;;;;;;;2.40;1.20;;;;;;;;;;5029139;28;20719;-77
2022/09/17 14:22:57;;;;;;;2.23;1.00;;;;;;;;;;5017095;28;20182;-78
2022/09/17 14:25:28;;;;;;;3.13;0.97;;;;;;;;;;5032679;28;20174;-78
2022/09/17 14:28:04;;;;;;;2.27;1.23;;;;;;;;;;5032812;28;20222;-78
2022/09/17 14:30:31;;;;;;;3.53;1.30;;;;;;;;;;5032436;28;20232;-78
2022/09/17 14:33:00;;;;;;;2.40;1.20;;;;;;;;;;5016398;28;20190;-78
2022/09/17 14:35:35;;;;;;;1.70;1.10;;;;;;;;;;5033727;28;20682;-78
2022/09/17 14:38:16;;;;;;;1.63;1.00;;;;;;;;;;5032458;28;20202;-78
2022/09/17 14:40:44;;;;;;;1.80;1.10;;;;;;;;;;5015837;28;20231;-78
2022/09/17 14:43:15;;;;;;;2.63;1.10;;;;;;;;;;5032953;28;20194;-82
2022/09/17 14:45:41;;;;;;;2.60;1.60;;;;;;;;;;5032780;28;20531;-78
2022/09/17 14:48:26;;;;;;;3.03;1.60;;;;;;;;;;5015750;28;20202;-78
2022/09/17 14:50:53;;;;;;;3.00;1.60;;;;;;;;;;5033551;28;20189;-78
2022/09/17 14:53:19;;;;;;;1.80;1.50;;;;;;;;;;5032343;28;20542;-78
2022/09/17 14:55:50;;;;;;;2.00;1.27;;;;;;;;;;5032437;28;20530;-78
2022/09/17 14:58:30;;;;;;;2.13;1.60;;;;;;;;;;5032265;28;20271;-78
2022/09/17 15:00:56;;;;;;;2.00;1.37;;;;;;;;;;5033328;28;20213;-80